createdAt,value
2023-05-09T00:00:47.165Z,26.97
2023-05-09T00:01:47.181Z,26.94
2023-05-09T00:02:47.214Z,26.96
2023-05-09T00:03:47.246Z,26.96
2023-05-09T00:04:47.391Z,26.94
2023-05-09T00:05:47.353Z,26.96
2023-05-09T00:06:47.375Z,26.93
2023-05-09T00:07:47.438Z,26.96
2023-05-09T00:08:47.484Z,26.96
2023-05-09T00:09:47.533Z,26.94
2023-05-09T00:10:47.601Z,26.96
2023-05-09T00:11:47.656Z,26.93
2023-05-09T00:12:47.734Z,26.94
2023-05-09T00:13:47.767Z,26.96
2023-05-09T00:14:47.817Z,26.93
2023-05-09T00:15:47.868Z,26.97
2023-05-09T00:16:48.031Z,26.94
2023-05-09T00:17:47.977Z,26.94
2023-05-09T00:18:48.028Z,26.96
2023-05-09T00:19:48.095Z,26.93
2023-05-09T00:20:48.122Z,26.94
2023-05-09T00:21:48.195Z,26.94
2023-05-09T00:22:48.257Z,26.93
2023-05-09T00:23:48.270Z,26.93
2023-05-09T00:24:48.313Z,26.94
2023-05-09T00:25:48.366Z,26.96
2023-05-09T00:26:48.448Z,26.93
2023-05-09T00:27:48.443Z,26.93
2023-05-09T00:28:48.508Z,26.94
2023-05-09T00:29:48.551Z,26.92
2023-05-09T00:30:48.578Z,26.92
2023-05-09T00:31:48.661Z,26.93
2023-05-09T00:32:48.764Z,26.93
2023-05-09T00:33:48.644Z,26.92
2023-05-09T00:34:48.674Z,26.92
2023-05-09T00:35:48.739Z,26.89
2023-05-09T00:36:48.809Z,26.92
2023-05-09T00:37:48.823Z,26.92
2023-05-09T00:38:48.851Z,26.92
2023-05-09T00:39:48.878Z,26.92
2023-05-09T00:40:48.976Z,26.92
2023-05-09T00:41:48.999Z,26.90
2023-05-09T00:42:49.017Z,26.92
2023-05-09T00:43:49.060Z,26.92
2023-05-09T00:44:49.064Z,26.92
2023-05-09T00:45:49.092Z,26.89
2023-05-09T00:46:49.053Z,26.89
2023-05-09T00:47:49.089Z,26.89
2023-05-09T00:48:49.152Z,26.90
2023-05-09T00:49:49.083Z,26.89
2023-05-09T00:50:49.112Z,26.90
2023-05-09T00:51:49.103Z,26.90
2023-05-09T00:52:49.123Z,26.90
2023-05-09T00:53:49.137Z,26.92
2023-05-09T00:54:49.115Z,26.90
2023-05-09T00:55:49.141Z,26.89
2023-05-09T00:56:49.114Z,26.87
2023-05-09T00:57:49.124Z,26.87
2023-05-09T00:58:49.119Z,26.89
2023-05-09T00:59:49.137Z,26.87
2023-05-09T01:00:49.147Z,26.89
2023-05-09T01:01:49.308Z,26.90
2023-05-09T01:02:49.308Z,26.89
2023-05-09T01:03:49.248Z,26.89
2023-05-09T01:04:49.271Z,26.90
2023-05-09T01:05:49.165Z,26.87
2023-05-09T01:06:49.178Z,26.89
2023-05-09T01:07:49.238Z,26.87
2023-05-09T01:08:49.206Z,26.87
2023-05-09T01:09:49.213Z,26.89
2023-05-09T01:10:49.211Z,26.87
2023-05-09T01:11:49.205Z,26.87
2023-05-09T01:12:49.260Z,26.89
2023-05-09T01:13:49.225Z,26.87
2023-05-09T01:14:49.228Z,26.87
2023-05-09T01:15:49.273Z,26.86
2023-05-09T01:16:49.233Z,26.89
2023-05-09T01:17:49.278Z,26.87
2023-05-09T01:18:49.284Z,26.87
2023-05-09T01:19:49.281Z,26.87
2023-05-09T01:20:49.349Z,26.85
2023-05-09T01:21:49.264Z,26.86
2023-05-09T01:22:49.257Z,26.85
2023-05-09T01:23:49.253Z,26.86
2023-05-09T01:24:49.263Z,26.86
2023-05-09T01:25:49.265Z,26.86
2023-05-09T01:26:49.241Z,26.87
2023-05-09T01:27:49.237Z,26.86
2023-05-09T01:28:49.256Z,26.85
2023-05-09T01:29:49.231Z,26.85
2023-05-09T01:30:49.248Z,26.86
2023-05-09T01:31:49.308Z,26.85
2023-05-09T01:32:49.263Z,26.86
2023-05-09T01:33:49.236Z,26.86
2023-05-09T01:34:49.226Z,26.85
2023-05-09T01:35:49.233Z,26.85
2023-05-09T01:36:49.317Z,26.85
2023-05-09T01:37:49.242Z,26.83
2023-05-09T01:38:49.229Z,26.83
2023-05-09T01:39:49.207Z,26.82
2023-05-09T01:40:49.199Z,26.83
2023-05-09T01:41:49.214Z,26.86
2023-05-09T01:42:49.209Z,26.86
2023-05-09T01:43:49.261Z,26.83
2023-05-09T01:44:49.238Z,26.85
2023-05-09T01:45:49.199Z,26.85
2023-05-09T01:46:49.248Z,26.86
2023-05-09T01:47:49.281Z,26.85
2023-05-09T01:48:49.207Z,26.85
2023-05-09T01:49:49.170Z,26.83
2023-05-09T01:50:49.209Z,26.83
2023-05-09T01:51:49.203Z,26.83
2023-05-09T01:52:49.295Z,26.85
2023-05-09T01:53:49.174Z,26.80
2023-05-09T01:54:49.187Z,26.85
2023-05-09T01:55:49.196Z,26.85
2023-05-09T01:56:49.204Z,26.83
2023-05-09T01:57:49.205Z,26.82
2023-05-09T01:58:49.203Z,26.80
2023-05-09T01:59:49.154Z,26.82
2023-05-09T02:00:49.179Z,26.85
2023-05-09T02:01:49.278Z,26.83
2023-05-09T02:02:49.386Z,26.83
2023-05-09T02:03:49.170Z,26.80
2023-05-09T02:04:49.172Z,26.82
2023-05-09T02:05:49.162Z,26.80
2023-05-09T02:06:49.175Z,26.79
2023-05-09T02:07:49.166Z,26.80
2023-05-09T02:08:49.238Z,26.82
2023-05-09T02:09:49.148Z,26.83
2023-05-09T02:10:49.165Z,26.79
2023-05-09T02:11:49.127Z,26.79
2023-05-09T02:12:49.163Z,26.80
2023-05-09T02:13:49.135Z,26.80
2023-05-09T02:14:49.116Z,26.82
2023-05-09T02:15:49.119Z,26.79
2023-05-09T02:16:49.186Z,26.80
2023-05-09T02:17:49.169Z,26.82
2023-05-09T02:18:49.135Z,26.80
2023-05-09T02:19:49.112Z,26.79
2023-05-09T02:20:49.135Z,26.79
2023-05-09T02:21:49.121Z,26.80
2023-05-09T02:22:49.130Z,26.79
2023-05-09T02:23:49.111Z,26.78
2023-05-09T02:24:49.243Z,26.80
2023-05-09T02:25:49.110Z,26.80
2023-05-09T02:26:49.182Z,26.79
2023-05-09T02:27:49.117Z,26.79
2023-05-09T02:28:49.128Z,26.79
2023-05-09T02:29:49.132Z,26.79
2023-05-09T02:30:49.101Z,26.79
2023-05-09T02:31:49.145Z,26.79
2023-05-09T02:32:49.206Z,26.79
2023-05-09T02:33:49.131Z,26.78
2023-05-09T02:34:49.172Z,26.78
2023-05-09T02:35:49.121Z,26.76
2023-05-09T02:36:49.113Z,26.80
2023-05-09T02:37:49.097Z,26.76
2023-05-09T02:38:49.127Z,26.78
2023-05-09T02:39:49.100Z,26.78
2023-05-09T02:40:51.006Z,26.76
2023-05-09T02:41:49.116Z,26.78
2023-05-09T02:42:49.113Z,26.79
2023-05-09T02:43:49.085Z,26.76
2023-05-09T02:44:49.078Z,26.78
2023-05-09T02:45:49.108Z,26.76
2023-05-09T02:46:49.066Z,26.76
2023-05-09T02:47:49.091Z,26.76
2023-05-09T02:48:49.085Z,26.76
2023-05-09T02:49:49.040Z,26.78
2023-05-09T02:50:49.038Z,26.76
2023-05-09T02:51:49.047Z,26.76
2023-05-09T02:52:49.034Z,26.78
2023-05-09T02:53:49.015Z,26.78
2023-05-09T02:54:49.023Z,26.75
2023-05-09T02:55:49.031Z,26.76
2023-05-09T02:56:49.095Z,26.75
2023-05-09T02:57:50.479Z,26.79
2023-05-09T02:58:49.996Z,26.78
2023-05-09T02:59:48.972Z,26.75
2023-05-09T03:00:48.984Z,26.76
2023-05-09T03:01:49.032Z,26.75
2023-05-09T03:02:49.057Z,26.76
2023-05-09T03:03:49.048Z,26.76
2023-05-09T03:04:49.005Z,26.76
2023-05-09T03:05:48.946Z,26.78
2023-05-09T03:06:48.951Z,26.75
2023-05-09T03:07:48.937Z,26.79
2023-05-09T03:08:48.955Z,26.76
2023-05-09T03:09:48.953Z,26.76
2023-05-09T03:10:48.945Z,26.76
2023-05-09T03:11:48.907Z,26.75
2023-05-09T03:12:49.054Z,26.75
2023-05-09T03:13:48.918Z,26.73
2023-05-09T03:14:48.895Z,26.75
2023-05-09T03:15:48.900Z,26.72
2023-05-09T03:16:48.870Z,26.75
2023-05-09T03:17:48.896Z,26.76
2023-05-09T03:18:48.870Z,26.73
2023-05-09T03:19:48.857Z,26.72
2023-05-09T03:20:48.850Z,26.72
2023-05-09T03:21:48.825Z,26.73
2023-05-09T03:22:48.821Z,26.75
2023-05-09T03:23:48.832Z,26.75
2023-05-09T03:24:48.817Z,26.73
2023-05-09T03:25:48.820Z,26.72
2023-05-09T03:26:48.809Z,26.73
2023-05-09T03:27:48.815Z,26.72
2023-05-09T03:28:48.866Z,26.73
2023-05-09T03:29:48.810Z,26.73
2023-05-09T03:30:48.796Z,26.73
2023-05-09T03:31:48.947Z,26.72
2023-05-09T03:32:48.836Z,26.73
2023-05-09T03:33:48.774Z,26.71
2023-05-09T03:34:48.779Z,26.71
2023-05-09T03:35:48.785Z,26.73
2023-05-09T03:36:48.812Z,26.75
2023-05-09T03:37:48.796Z,26.71
2023-05-09T03:38:48.809Z,26.73
2023-05-09T03:39:48.816Z,26.75
2023-05-09T03:40:48.823Z,26.72
2023-05-09T03:41:48.818Z,26.72
2023-05-09T03:42:48.823Z,26.71
2023-05-09T03:43:48.827Z,26.71
2023-05-09T03:44:48.972Z,26.71
2023-05-09T03:45:48.844Z,26.71
2023-05-09T03:46:48.883Z,26.72
2023-05-09T03:47:48.883Z,26.71
2023-05-09T03:48:48.890Z,26.72
2023-05-09T03:49:48.896Z,26.72
2023-05-09T03:50:48.897Z,26.69
2023-05-09T03:51:48.886Z,26.71
2023-05-09T03:52:48.899Z,26.73
2023-05-09T03:53:48.913Z,26.72
2023-05-09T03:54:48.915Z,26.71
2023-05-09T03:55:48.931Z,26.72
2023-05-09T03:56:48.946Z,26.71
2023-05-09T03:57:48.939Z,26.69
2023-05-09T03:58:48.954Z,26.72
2023-05-09T03:59:48.961Z,26.72
2023-05-09T04:00:49.058Z,26.69
2023-05-09T04:01:49.012Z,26.71
2023-05-09T04:02:49.094Z,26.71
2023-05-09T04:03:49.046Z,26.68
2023-05-09T04:04:49.023Z,26.71
2023-05-09T04:05:49.021Z,26.71
2023-05-09T04:06:49.024Z,26.72
2023-05-09T04:07:49.020Z,26.68
2023-05-09T04:08:49.019Z,26.69
2023-05-09T04:09:49.069Z,26.72
2023-05-09T04:10:49.025Z,26.72
2023-05-09T04:11:49.018Z,26.71
2023-05-09T04:12:49.086Z,26.73
2023-05-09T04:13:49.075Z,26.71
2023-05-09T04:14:49.264Z,26.69
2023-05-09T04:15:49.074Z,26.71
2023-05-09T04:16:49.232Z,26.71
2023-05-09T04:17:49.092Z,26.68
2023-05-09T04:18:49.105Z,26.71
2023-05-09T04:19:49.125Z,26.71
2023-05-09T04:20:49.140Z,26.71
2023-05-09T04:21:49.130Z,26.71
2023-05-09T04:22:49.131Z,26.69
2023-05-09T04:23:49.160Z,26.68
2023-05-09T04:24:49.172Z,26.69
2023-05-09T04:25:49.183Z,26.71
2023-05-09T04:26:49.183Z,26.69
2023-05-09T04:27:49.198Z,26.68
2023-05-09T04:28:49.218Z,26.71
2023-05-09T04:29:49.213Z,26.71
2023-05-09T04:30:49.324Z,26.69
2023-05-09T04:31:49.313Z,26.71
2023-05-09T04:32:49.387Z,26.66
2023-05-09T04:33:49.267Z,26.69
2023-05-09T04:34:49.284Z,26.68
2023-05-09T04:35:49.269Z,26.68
2023-05-09T04:36:49.298Z,26.68
2023-05-09T04:37:49.322Z,26.69
2023-05-09T04:38:49.293Z,26.69
2023-05-09T04:39:49.319Z,26.69
2023-05-09T04:40:49.321Z,26.68
2023-05-09T04:41:49.310Z,26.68
2023-05-09T04:42:49.334Z,26.71
2023-05-09T04:43:49.348Z,26.68
2023-05-09T04:44:49.359Z,26.68
2023-05-09T04:45:49.388Z,26.71
2023-05-09T04:46:49.404Z,26.69
2023-05-09T04:47:49.460Z,26.71
2023-05-09T04:48:49.476Z,26.69
2023-05-09T04:49:49.407Z,26.69
2023-05-09T04:50:49.430Z,26.69
2023-05-09T04:51:49.434Z,26.71
2023-05-09T04:52:49.427Z,26.69
2023-05-09T04:53:49.466Z,26.69
2023-05-09T04:54:49.448Z,26.68
2023-05-09T04:55:49.462Z,26.72
2023-05-09T04:56:50.720Z,26.68
2023-05-09T04:57:49.471Z,26.71
2023-05-09T04:58:49.527Z,26.68
2023-05-09T04:59:49.492Z,26.69
2023-05-09T05:00:49.503Z,26.69
2023-05-09T05:01:49.521Z,26.71
2023-05-09T05:02:49.560Z,26.71
2023-05-09T05:03:49.532Z,26.69
2023-05-09T05:04:49.737Z,26.71
2023-05-09T05:05:49.669Z,26.69
2023-05-09T05:06:49.571Z,26.69
2023-05-09T05:07:49.577Z,26.69
2023-05-09T05:08:49.609Z,26.69
2023-05-09T05:09:49.592Z,26.71
2023-05-09T05:10:49.624Z,26.69
2023-05-09T05:11:58.752Z,26.69
2023-05-09T05:12:50.642Z,26.71
2023-05-09T05:13:49.605Z,26.71
2023-05-09T05:14:49.591Z,26.69
2023-05-09T05:15:49.618Z,26.71
2023-05-09T05:16:49.592Z,26.71
2023-05-09T05:17:49.611Z,26.71
2023-05-09T05:18:49.590Z,26.71
2023-05-09T05:19:49.567Z,26.69
2023-05-09T05:20:49.649Z,26.69
2023-05-09T05:21:49.555Z,26.71
2023-05-09T05:22:49.552Z,26.69
2023-05-09T05:23:49.551Z,26.72
2023-05-09T05:24:49.528Z,26.72
2023-05-09T05:25:49.549Z,26.71
2023-05-09T05:26:49.533Z,26.71
2023-05-09T05:27:49.509Z,26.42
2023-05-09T05:28:49.535Z,26.00
2023-05-09T05:29:49.497Z,25.62
2023-05-09T05:30:49.501Z,25.39
2023-05-09T05:31:49.541Z,24.51
2023-05-09T05:32:49.580Z,24.09
2023-05-09T05:33:49.568Z,23.63
2023-05-09T05:34:49.487Z,23.25
2023-05-09T05:35:49.456Z,23.05
2023-05-09T05:36:49.562Z,22.94
2023-05-09T05:37:50.042Z,23.18
2023-05-09T05:38:49.587Z,22.74
2023-05-09T05:39:49.595Z,22.77
2023-05-09T05:40:49.636Z,22.40
2023-05-09T05:41:49.650Z,22.46
2023-05-09T05:42:49.665Z,22.68
2023-05-09T05:43:51.133Z,22.89
2023-05-09T05:44:49.668Z,22.87
2023-05-09T05:45:49.709Z,23.14
2023-05-09T05:46:49.661Z,23.31
2023-05-09T05:47:49.728Z,23.32
2023-05-09T05:48:49.639Z,23.51
2023-05-09T05:49:49.643Z,23.68
2023-05-09T05:50:49.612Z,23.77
2023-05-09T05:51:49.615Z,23.89
2023-05-09T05:52:49.693Z,23.93
2023-05-09T05:53:49.621Z,23.96
2023-05-09T05:54:49.582Z,24.00
2023-05-09T05:55:49.589Z,24.16
2023-05-09T05:56:49.573Z,24.31
2023-05-09T05:57:49.570Z,24.47
2023-05-09T05:58:49.574Z,24.67
2023-05-09T05:59:49.570Z,24.79
2023-05-09T06:00:49.565Z,24.82
2023-05-09T06:01:49.599Z,25.02
2023-05-09T06:02:49.633Z,25.11
2023-05-09T06:03:49.579Z,25.23
2023-05-09T06:04:49.537Z,25.36
2023-05-09T06:05:49.538Z,25.46
2023-05-09T06:06:49.497Z,25.56
2023-05-09T06:07:49.504Z,25.62
2023-05-09T06:08:49.585Z,25.73
2023-05-09T06:09:49.487Z,25.76
2023-05-09T06:10:49.493Z,25.74
2023-05-09T06:11:49.479Z,25.79
2023-05-09T06:12:49.571Z,25.84
2023-05-09T06:13:49.516Z,25.93
2023-05-09T06:14:49.447Z,26.00
2023-05-09T06:15:49.457Z,26.07
2023-05-09T06:16:49.500Z,26.09
2023-05-09T06:17:49.462Z,26.18
2023-05-09T06:18:49.581Z,26.21
2023-05-09T06:19:49.459Z,26.27
2023-05-09T06:20:49.438Z,26.30
2023-05-09T06:21:49.423Z,26.32
2023-05-09T06:22:49.424Z,26.34
2023-05-09T06:24:05.785Z,26.34
2023-05-09T06:24:50.490Z,26.32
2023-05-09T06:25:49.417Z,26.31
2023-05-09T06:26:49.386Z,26.36
2023-05-09T06:27:49.382Z,26.21
2023-05-09T06:28:49.388Z,26.27
2023-05-09T06:29:49.369Z,26.27
2023-05-09T06:30:49.353Z,26.28
2023-05-09T06:31:49.382Z,26.22
2023-05-09T06:32:49.338Z,25.73
2023-05-09T06:33:49.563Z,25.42
2023-05-09T06:34:49.338Z,25.13
2023-05-09T06:35:49.322Z,24.85
2023-05-09T06:36:49.343Z,24.75
2023-05-09T06:37:49.526Z,24.78
2023-05-09T06:38:49.533Z,24.89
2023-05-09T06:39:49.395Z,24.96
2023-05-09T06:40:49.480Z,25.12
2023-05-09T06:41:49.411Z,25.16
2023-05-09T06:42:49.426Z,25.25
2023-05-09T06:43:50.008Z,25.40
2023-05-09T06:44:49.527Z,25.46
2023-05-09T06:45:49.507Z,25.52
2023-05-09T06:46:49.472Z,25.49
2023-05-09T06:47:49.499Z,25.63
2023-05-09T06:48:49.441Z,25.70
2023-05-09T06:49:49.506Z,25.64
2023-05-09T06:50:49.482Z,25.81
2023-05-09T06:51:49.531Z,25.80
2023-05-09T06:52:49.535Z,25.84
2023-05-09T06:53:50.045Z,25.84
2023-05-09T06:54:49.645Z,25.88
2023-05-09T06:55:49.688Z,25.81
2023-05-09T06:56:49.840Z,25.88
2023-05-09T06:57:49.868Z,26.02
2023-05-09T06:58:50.145Z,26.07
2023-05-09T06:59:50.056Z,26.07
2023-05-09T07:00:49.780Z,26.18
2023-05-09T07:01:49.853Z,26.15
2023-05-09T07:02:49.720Z,26.18
2023-05-09T07:03:49.663Z,26.15
2023-05-09T07:04:50.087Z,26.24
2023-05-09T07:05:49.690Z,26.22
2023-05-09T07:06:49.762Z,26.30
2023-05-09T07:07:49.791Z,26.34
2023-05-09T07:08:49.824Z,26.38
2023-05-09T07:09:52.985Z,26.35
2023-05-09T07:10:50.870Z,26.28
2023-05-09T07:11:49.862Z,26.38
2023-05-09T07:12:49.983Z,26.41
2023-05-09T07:13:49.861Z,26.32
2023-05-09T07:14:50.068Z,26.35
2023-05-09T07:15:49.877Z,26.42
2023-05-09T07:16:49.894Z,26.42
2023-05-09T07:17:49.890Z,26.49
2023-05-09T07:18:49.822Z,26.32
2023-05-09T07:19:50.082Z,26.38
2023-05-09T07:20:49.789Z,26.42
2023-05-09T07:21:49.791Z,26.41
2023-05-09T07:22:49.799Z,26.43
2023-05-09T07:23:49.789Z,26.48
2023-05-09T07:24:49.791Z,26.49
2023-05-09T07:25:49.852Z,26.32
2023-05-09T07:26:49.840Z,25.85
2023-05-09T07:27:49.870Z,25.70
2023-05-09T07:28:50.155Z,25.32
2023-05-09T07:29:50.066Z,25.22
2023-05-09T07:30:50.049Z,24.93
2023-05-09T07:31:50.116Z,25.29
2023-05-09T07:32:50.239Z,25.23
2023-05-09T07:33:50.573Z,25.52
2023-05-09T07:34:50.563Z,25.63
2023-05-09T07:35:50.240Z,25.71
2023-05-09T07:36:50.307Z,25.85
2023-05-09T07:37:50.363Z,26.00
2023-05-09T07:38:50.564Z,26.12
2023-05-09T07:39:50.564Z,26.22
2023-05-09T07:40:50.499Z,26.32
2023-05-09T07:41:50.526Z,26.32
2023-05-09T07:42:50.557Z,26.41
2023-05-09T07:43:50.592Z,26.52
2023-05-09T07:44:50.691Z,26.59
2023-05-09T07:45:50.725Z,26.60
2023-05-09T07:46:50.636Z,26.66
2023-05-09T07:47:50.766Z,26.68
2023-05-09T07:48:50.650Z,26.72
2023-05-09T07:49:50.676Z,26.75
2023-05-09T07:50:50.673Z,26.78
2023-05-09T07:51:50.711Z,26.82
2023-05-09T07:52:50.686Z,26.83
2023-05-09T07:53:50.675Z,26.90
2023-05-09T07:54:50.671Z,27.00
2023-05-09T07:55:50.693Z,27.09
2023-05-09T07:56:50.753Z,27.13
2023-05-09T07:57:50.812Z,27.13
2023-05-09T07:58:50.865Z,27.24
2023-05-09T07:59:51.086Z,27.26
2023-05-09T08:00:51.068Z,27.33
2023-05-09T08:01:51.087Z,27.38
2023-05-09T08:02:51.166Z,27.38
2023-05-09T08:03:51.219Z,27.47
2023-05-09T08:04:51.183Z,27.52
2023-05-09T08:05:51.223Z,27.52
2023-05-09T08:06:51.261Z,27.52
2023-05-09T08:07:51.290Z,27.58
2023-05-09T08:08:51.314Z,27.57
2023-05-09T08:09:51.340Z,27.61
2023-05-09T08:10:51.381Z,27.58
2023-05-09T08:11:51.399Z,27.68
2023-05-09T08:12:51.489Z,27.64
2023-05-09T08:13:51.455Z,27.51
2023-05-09T08:14:51.481Z,27.69
2023-05-09T08:15:51.519Z,27.74
2023-05-09T08:16:51.589Z,27.66
2023-05-09T08:17:51.574Z,27.77
2023-05-09T08:18:51.590Z,27.80
2023-05-09T08:19:51.542Z,27.80
2023-05-09T08:20:51.552Z,27.60
2023-05-09T08:21:51.567Z,27.31
2023-05-09T08:22:51.600Z,27.30
2023-05-09T08:23:52.099Z,27.21
2023-05-09T08:24:51.697Z,27.27
2023-05-09T08:25:51.740Z,27.30
2023-05-09T08:26:51.782Z,27.34
2023-05-09T08:27:53.053Z,27.34
2023-05-09T08:28:51.887Z,27.34
2023-05-09T08:29:51.906Z,27.37
2023-05-09T08:30:52.168Z,27.34
2023-05-09T08:31:52.009Z,27.38
2023-05-09T08:32:52.140Z,27.38
2023-05-09T08:33:52.054Z,27.37
2023-05-09T08:34:52.091Z,27.41
2023-05-09T08:35:52.136Z,27.30
2023-05-09T08:36:52.169Z,26.79
2023-05-09T08:37:52.245Z,26.96
2023-05-09T08:38:52.298Z,26.96
2023-05-09T08:39:52.622Z,26.96
2023-05-09T08:40:52.412Z,27.02
2023-05-09T08:41:52.453Z,27.03
2023-05-09T08:42:52.514Z,27.00
2023-05-09T08:43:52.585Z,26.93
2023-05-09T08:44:52.653Z,26.97
2023-05-09T08:45:52.737Z,26.87
2023-05-09T08:46:52.804Z,26.73
2023-05-09T08:47:52.836Z,26.68
2023-05-09T08:48:53.181Z,26.60
2023-05-09T08:49:52.910Z,26.35
2023-05-09T08:50:52.892Z,26.27
2023-05-09T08:51:52.917Z,26.12
2023-05-09T08:52:52.948Z,26.11
2023-05-09T08:53:53.102Z,26.04
2023-05-09T08:54:53.055Z,26.05
2023-05-09T08:55:53.075Z,26.02
2023-05-09T08:56:53.114Z,25.97
2023-05-09T08:57:53.153Z,25.95
2023-05-09T08:58:53.210Z,25.95
2023-05-09T08:59:53.248Z,25.91
2023-05-09T09:00:53.311Z,25.91
2023-05-09T09:01:53.425Z,25.87
2023-05-09T09:02:53.677Z,25.94
2023-05-09T09:03:53.463Z,25.87
2023-05-09T09:04:53.648Z,25.88
2023-05-09T09:05:53.706Z,25.81
2023-05-09T09:06:53.649Z,25.80
2023-05-09T09:07:53.686Z,25.80
2023-05-09T09:08:53.742Z,25.81
2023-05-09T09:09:53.790Z,25.73
2023-05-09T09:10:53.830Z,25.74
2023-05-09T09:11:53.879Z,25.71
2023-05-09T09:12:54.002Z,25.74
2023-05-09T09:13:54.139Z,25.77
2023-05-09T09:14:54.069Z,25.79
2023-05-09T09:15:54.117Z,25.77
2023-05-09T09:16:54.237Z,25.79
2023-05-09T09:17:54.291Z,25.81
2023-05-09T09:18:54.334Z,25.84
2023-05-09T09:19:54.333Z,25.87
2023-05-09T09:20:54.455Z,25.84
2023-05-09T09:21:54.428Z,25.95
2023-05-09T09:22:54.469Z,26.01
2023-05-09T09:23:54.618Z,26.02
2023-05-09T09:24:54.631Z,25.95
2023-05-09T09:25:54.581Z,26.08
2023-05-09T09:26:54.616Z,26.18
2023-05-09T09:27:54.683Z,26.27
2023-05-09T09:28:55.132Z,26.38
2023-05-09T09:29:54.680Z,26.58
2023-05-09T09:30:54.667Z,26.53
2023-05-09T09:31:54.715Z,26.64
2023-05-09T09:32:54.728Z,26.76
2023-05-09T09:33:54.686Z,26.79
2023-05-09T09:34:55.123Z,26.94
2023-05-09T09:35:54.821Z,27.06
2023-05-09T09:36:54.946Z,27.13
2023-05-09T09:37:54.931Z,27.20
2023-05-09T09:38:54.951Z,27.26
2023-05-09T09:39:54.986Z,27.14
2023-05-09T09:40:55.077Z,27.24
2023-05-09T09:41:55.059Z,27.38
2023-05-09T09:42:55.110Z,27.47
2023-05-09T09:43:57.435Z,27.54
2023-05-09T09:44:55.126Z,27.62
2023-05-09T09:45:55.157Z,27.68
2023-05-09T09:46:55.164Z,27.72
2023-05-09T09:47:55.169Z,27.78
2023-05-09T09:48:55.095Z,27.81
2023-05-09T09:49:55.127Z,27.84
2023-05-09T09:50:55.063Z,27.80
2023-05-09T09:51:55.071Z,27.85
2023-05-09T09:52:55.159Z,27.89
2023-05-09T09:53:55.060Z,27.91
2023-05-09T09:54:55.118Z,27.89
2023-05-09T09:55:55.050Z,27.88
2023-05-09T09:56:55.370Z,27.87
2023-05-09T09:57:55.017Z,27.82
2023-05-09T09:58:55.029Z,27.91
2023-05-09T09:59:55.030Z,27.85
2023-05-09T10:00:55.010Z,27.82
2023-05-09T10:01:55.023Z,27.85
2023-05-09T10:02:55.035Z,27.88
2023-05-09T10:03:55.026Z,27.96
2023-05-09T10:04:54.975Z,27.89
2023-05-09T10:05:54.974Z,27.91
2023-05-09T10:06:54.989Z,27.92
2023-05-09T10:07:54.954Z,27.96
2023-05-09T10:08:55.036Z,27.98
2023-05-09T10:09:54.960Z,27.85
2023-05-09T10:10:54.949Z,27.88
2023-05-09T10:11:54.938Z,27.87
2023-05-09T10:12:54.951Z,28.01
2023-05-09T10:13:54.939Z,27.99
2023-05-09T10:14:55.138Z,27.96
2023-05-09T10:15:54.992Z,27.99
2023-05-09T10:16:54.938Z,27.95
2023-05-09T10:17:55.130Z,28.05
2023-05-09T10:18:54.898Z,28.09
2023-05-09T10:19:55.139Z,28.09
2023-05-09T10:20:54.874Z,27.91
2023-05-09T10:21:54.857Z,28.05
2023-05-09T10:22:54.859Z,27.66
2023-05-09T10:23:54.872Z,27.74
2023-05-09T10:24:56.919Z,27.58
2023-05-09T10:25:54.884Z,27.52
2023-05-09T10:26:54.828Z,27.60
2023-05-09T10:27:54.822Z,27.61
2023-05-09T10:28:54.835Z,27.57
2023-05-09T10:29:54.830Z,27.57
2023-05-09T10:30:54.834Z,27.50
2023-05-09T10:31:54.917Z,27.37
2023-05-09T10:32:54.885Z,27.29
2023-05-09T10:33:54.776Z,27.37
2023-05-09T10:34:55.128Z,27.45
2023-05-09T10:35:54.790Z,27.31
2023-05-09T10:36:54.761Z,27.15
2023-05-09T10:37:54.749Z,27.30
2023-05-09T10:38:54.805Z,27.27
2023-05-09T10:39:54.781Z,27.09
2023-05-09T10:40:54.826Z,27.14
2023-05-09T10:41:54.724Z,26.96
2023-05-09T10:42:54.745Z,27.20
2023-05-09T10:43:54.718Z,26.93
2023-05-09T10:44:55.154Z,26.90
2023-05-09T10:45:54.701Z,27.06
2023-05-09T10:46:54.808Z,27.17
2023-05-09T10:47:54.719Z,27.36
2023-05-09T10:48:54.676Z,27.17
2023-05-09T10:49:55.159Z,27.02
2023-05-09T10:50:54.683Z,27.09
2023-05-09T10:51:54.672Z,27.14
2023-05-09T10:52:54.664Z,26.96
2023-05-09T10:53:54.649Z,26.83
2023-05-09T10:54:55.240Z,26.80
2023-05-09T10:55:54.629Z,26.66
2023-05-09T10:56:54.710Z,26.86
2023-05-09T10:57:54.620Z,26.99
2023-05-09T10:58:54.674Z,27.04
2023-05-09T10:59:54.639Z,27.11
2023-05-09T11:00:55.348Z,27.15
2023-05-09T11:01:54.733Z,27.23
2023-05-09T11:02:54.835Z,27.26
2023-05-09T11:03:54.734Z,27.31
2023-05-09T11:04:54.757Z,27.33
2023-05-09T11:05:54.762Z,27.36
2023-05-09T11:06:57.125Z,27.37
2023-05-09T11:07:54.804Z,27.42
2023-05-09T11:08:54.789Z,27.44
2023-05-09T11:09:54.772Z,27.45
2023-05-09T11:10:54.769Z,27.47
2023-05-09T11:11:54.776Z,27.48
2023-05-09T11:12:56.161Z,27.48
2023-05-09T11:13:54.746Z,27.48
2023-05-09T11:14:55.148Z,27.47
2023-05-09T11:15:54.763Z,27.38
2023-05-09T11:16:54.728Z,27.14
2023-05-09T11:17:54.747Z,27.14
2023-05-09T11:18:54.730Z,27.30
2023-05-09T11:19:55.156Z,27.40
2023-05-09T11:20:54.713Z,27.47
2023-05-09T11:21:54.691Z,27.50
2023-05-09T11:22:54.757Z,27.55
2023-05-09T11:23:55.372Z,27.60
2023-05-09T11:24:54.700Z,27.64
2023-05-09T11:25:54.669Z,27.66
2023-05-09T11:26:54.659Z,27.69
2023-05-09T11:27:54.649Z,27.72
2023-05-09T11:28:54.733Z,27.72
2023-05-09T11:29:54.661Z,27.75
2023-05-09T11:30:54.947Z,27.77
2023-05-09T11:31:54.711Z,27.82
2023-05-09T11:32:54.677Z,27.82
2023-05-09T11:33:54.642Z,27.85
2023-05-09T11:34:54.608Z,27.87
2023-05-09T11:35:54.613Z,27.87
2023-05-09T11:36:55.712Z,27.89
2023-05-09T11:37:54.605Z,27.89
2023-05-09T11:38:54.596Z,27.91
2023-05-09T11:39:54.588Z,27.92
2023-05-09T11:40:54.586Z,27.92
2023-05-09T11:41:54.602Z,27.93
2023-05-09T11:42:57.058Z,27.96
2023-05-09T11:43:54.547Z,27.95
2023-05-09T11:44:54.593Z,27.98
2023-05-09T11:45:54.550Z,27.96
2023-05-09T11:46:54.541Z,28.01
2023-05-09T11:47:54.623Z,28.01
2023-05-09T11:48:54.554Z,28.01
2023-05-09T11:49:54.523Z,27.99
2023-05-09T11:50:54.503Z,27.98
2023-05-09T11:51:54.514Z,28.02
2023-05-09T11:52:54.496Z,28.03
2023-05-09T11:53:54.479Z,27.99
2023-05-09T11:54:54.472Z,28.03
2023-05-09T11:55:54.459Z,28.03
2023-05-09T11:56:54.453Z,28.03
2023-05-09T11:57:54.526Z,28.03
2023-05-09T11:58:54.452Z,28.03
2023-05-09T11:59:54.450Z,28.06
2023-05-09T12:00:54.508Z,28.03
2023-05-09T12:01:54.419Z,28.08
2023-05-09T12:02:54.540Z,28.05
2023-05-09T12:03:54.518Z,28.02
2023-05-09T12:04:54.416Z,27.99
2023-05-09T12:05:54.420Z,27.93
2023-05-09T12:06:54.406Z,27.99
2023-05-09T12:07:54.409Z,28.02
2023-05-09T12:08:54.388Z,28.05
2023-05-09T12:09:54.377Z,28.01
2023-05-09T12:10:54.373Z,28.08
2023-05-09T12:11:54.358Z,28.03
2023-05-09T12:12:54.395Z,28.08
2023-05-09T12:13:54.373Z,28.12
2023-05-09T12:14:54.340Z,28.09
2023-05-09T12:15:54.384Z,28.13
2023-05-09T12:16:54.413Z,28.16
2023-05-09T12:17:54.367Z,28.18
2023-05-09T12:18:54.362Z,28.18
2023-05-09T12:19:54.347Z,28.20
2023-05-09T12:20:54.300Z,28.20
2023-05-09T12:21:54.315Z,28.22
2023-05-09T12:22:54.322Z,28.23
2023-05-09T12:23:54.296Z,28.24
2023-05-09T12:24:54.301Z,28.26
2023-05-09T12:25:54.283Z,28.26
2023-05-09T12:26:54.269Z,28.26
2023-05-09T12:27:54.258Z,28.26
2023-05-09T12:28:54.254Z,28.30
2023-05-09T12:29:55.104Z,28.29
2023-05-09T12:30:54.241Z,28.29
2023-05-09T12:31:54.277Z,28.32
2023-05-09T12:32:54.379Z,28.32
2023-05-09T12:33:54.251Z,28.36
2023-05-09T12:34:54.216Z,28.39
2023-05-09T12:35:54.652Z,28.29
2023-05-09T12:36:54.222Z,28.15
2023-05-09T12:37:54.208Z,28.29
2023-05-09T12:38:54.214Z,28.19
2023-05-09T12:39:54.226Z,28.32
2023-05-09T12:40:54.268Z,28.30
2023-05-09T12:42:01.543Z,28.33
2023-05-09T12:42:55.340Z,28.35
2023-05-09T12:43:54.320Z,28.36
2023-05-09T12:44:54.378Z,28.39
2023-05-09T12:45:54.369Z,28.42
2023-05-09T12:46:54.420Z,28.42
2023-05-09T12:47:54.324Z,28.44
2023-05-09T12:48:54.446Z,28.44
2023-05-09T12:49:54.310Z,28.44
2023-05-09T12:50:54.293Z,28.44
2023-05-09T12:51:54.292Z,28.47
2023-05-09T12:53:02.768Z,28.49